Time;durP1;ratioP1;P1;durP2;ratioP2;P2;SDS_P1;SDS_P2;PMS_P1;PMS_P2;Temp;Humidity;BMP_temperature;BMP_pressure;BME280_temperature;BME280_humidity;BME280_pressure;Samples;Min_cycle;Max_cycle;Signal;HPM_P1;HPM_P2
2023/08/29 00:00:01;;;;;;;5.63;5.17;;;;;;;26.99;46.46;94156.34;5094759;28;20440;-82
2023/08/29 00:02:31;;;;;;;5.67;5.17;;;;;;;27.09;46.41;94151.91;5094993;28;20439;-82
2023/08/29 00:04:58;;;;;;;6.90;5.10;;;;;;;26.86;46.82;94154.78;5095099;28;20480;-82
2023/08/29 00:07:25;;;;;;;6.50;4.00;;;;;;;26.82;46.98;94143.69;5095055;28;20444;-80
2023/08/29 00:09:52;;;;;;;7.80;5.73;;;;;;;26.87;46.42;94140.25;5094882;28;20442;-82
2023/08/29 00:12:21;;;;;;;5.70;5.07;;;;;;;26.88;47.02;94144.56;5094771;28;20501;-81
2023/08/29 00:14:48;;;;;;;8.33;4.90;;;;;;;26.86;46.45;94144.81;5095479;28;20522;-80
2023/08/29 00:17:16;;;;;;;11.53;4.87;;;;;;;26.78;46.53;94147.13;5096000;28;20450;-81
2023/08/29 00:19:43;;;;;;;6.50;5.27;;;;;;;26.82;47.44;94150.97;5060093;28;20444;-81
2023/08/29 00:22:09;;;;;;;9.47;5.43;;;;;;;26.82;47.30;94141.00;5097654;28;20440;-82
2023/08/29 00:24:36;;;;;;;6.93;4.67;;;;;;;26.85;46.75;94137.81;5098186;28;20470;-81
2023/08/29 00:27:03;;;;;;;5.53;5.03;;;;;;;26.77;47.15;94145.50;5095400;28;20441;-82
2023/08/29 00:29:32;;;;;;;4.83;4.43;;;;;;;26.81;47.74;94152.03;5095701;28;20485;-82
2023/08/29 00:32:01;;;;;;;5.00;4.60;;;;;;;26.76;47.52;94149.28;5095430;28;20447;-81
2023/08/29 00:34:28;;;;;;;6.93;5.10;;;;;;;26.83;47.65;94156.09;5095772;28;20480;-82
2023/08/29 00:36:56;;;;;;;10.80;5.80;;;;;;;26.78;47.52;94149.84;5095019;28;20447;-81
2023/08/29 00:39:23;;;;;;;9.90;5.53;;;;;;;26.68;47.54;94147.81;5094877;28;20440;-82
2023/08/29 00:41:51;;;;;;;5.67;5.13;;;;;;;26.65;48.03;94137.56;5094878;28;20444;-81
2023/08/29 00:44:17;;;;;;;6.60;5.00;;;;;;;26.67;47.43;94140.81;5094677;28;20482;-81
2023/08/29 00:46:46;;;;;;;6.00;4.90;;;;;;;26.46;48.25;94136.19;5095046;28;20444;-82
2023/08/29 00:49:18;;;;;;;5.53;4.80;;;;;;;26.38;48.27;94137.44;5059290;28;20459;-81
2023/08/29 00:51:46;;;;;;;5.77;4.77;;;;;;;26.30;48.56;94126.22;5094778;28;20825;-81
2023/08/29 00:54:16;;;;;;;7.37;5.67;;;;;;;26.14;48.73;94136.75;5042221;28;20495;-81
2023/08/29 00:56:44;;;;;;;8.73;5.17;;;;;;;26.24;49.21;94136.09;5094507;28;20440;-81
2023/08/29 00:59:11;;;;;;;7.57;5.00;;;;;;;26.37;48.73;94141.19;5059392;28;20463;-82
2023/08/29 01:01:39;;;;;;;5.90;5.40;;;;;;;26.37;49.15;94135.78;5094081;28;20935;-82
2023/08/29 01:04:09;;;;;;;6.90;4.53;;;;;;;26.32;48.34;94141.06;5094975;28;20929;-82
2023/08/29 01:06:37;;;;;;;6.40;5.30;;;;;;;26.22;48.73;94139.00;5043336;28;20444;-82
2023/08/29 01:09:06;;;;;;;5.47;4.90;;;;;;;26.14;49.18;94131.38;5094431;28;20481;-81
2023/08/29 01:11:41;;;;;;;6.77;4.77;;;;;;;26.16;49.51;94131.94;5094365;28;20457;-83
2023/08/29 01:14:16;;;;;;;8.53;5.30;;;;;;;26.07;49.28;94128.03;5094204;28;20991;-82
2023/08/29 01:16:49;;;;;;;11.60;5.57;;;;;;;26.01;50.16;94122.78;5094310;28;20940;-82
2023/08/29 01:19:22;;;;;;;6.13;5.40;;;;;;;26.12;49.46;94121.91;5093945;28;20458;-82
2023/08/29 01:21:55;;;;;;;5.33;4.47;;;;;;;26.15;49.46;94116.03;5094295;28;20447;-81
2023/08/29 01:24:27;;;;;;;6.60;4.90;;;;;;;26.22;49.23;94114.00;5093958;28;20450;-81
2023/08/29 01:26:57;;;;;;;5.40;4.90;;;;;;;26.20;49.93;94102.66;5093964;28;20454;-80
2023/08/29 01:29:25;;;;;;;6.93;4.93;;;;;;;26.17;49.70;94100.47;5094196;28;20444;-82
2023/08/29 01:31:52;;;;;;;5.73;4.53;;;;;;;26.07;49.97;94092.25;5094047;28;20440;-81
2023/08/29 01:34:19;;;;;;;5.80;5.00;;;;;;;26.05;50.25;94094.38;5094178;28;20483;-82
2023/08/29 01:36:47;;;;;;;5.90;4.30;;;;;;;26.03;49.49;94100.00;5093976;28;20490;-82
2023/08/29 01:39:14;;;;;;;6.00;5.33;;;;;;;26.03;50.87;94091.13;5093638;28;20527;-82
2023/08/29 01:41:41;;;;;;;6.33;5.03;;;;;;;26.08;49.90;94088.50;5093553;28;20446;-82
2023/08/29 01:44:09;;;;;;;5.60;4.90;;;;;;;26.00;49.74;94086.22;5093283;28;20445;-81
2023/08/29 01:46:37;;;;;;;14.67;5.00;;;;;;;26.07;50.54;94100.31;5093427;28;20431;-82
2023/08/29 01:49:05;;;;;;;6.03;5.00;;;;;;;25.93;50.30;94092.56;5093412;28;20462;-82
2023/08/29 01:51:32;;;;;;;5.90;5.33;;;;;;;25.89;50.77;94093.31;5041026;28;21038;-82
2023/08/29 01:53:59;;;;;;;6.53;5.03;;;;;;;25.83;50.38;94087.03;5093293;28;20495;-81
2023/08/29 01:56:29;;;;;;;6.40;5.80;;;;;;;25.75;51.30;94086.63;5093252;28;20439;-82
2023/08/29 01:58:57;;;;;;;5.50;5.00;;;;;;;25.78;51.10;94084.28;5041080;28;20456;-81
2023/08/29 02:01:26;;;;;;;5.53;4.93;;;;;;;25.80;51.18;94082.16;5093888;28;20436;-81
2023/08/29 02:03:52;;;;;;;6.17;5.57;;;;;;;25.71;50.84;94086.28;5093079;28;20796;-82
2023/08/29 02:06:20;;;;;;;9.07;4.93;;;;;;;25.67;51.82;94082.44;5093226;28;20447;-81
2023/08/29 02:08:46;;;;;;;6.20;5.60;;;;;;;25.75;50.86;94092.00;5092841;28;20440;-81
2023/08/29 02:11:13;;;;;;;5.57;5.00;;;;;;;25.73;51.57;94086.03;5093038;28;20444;-81
2023/08/29 02:13:40;;;;;;;6.63;5.43;;;;;;;25.80;51.63;94092.91;5094280;28;20991;-81
2023/08/29 02:16:07;;;;;;;5.20;4.70;;;;;;;25.84;51.66;94083.28;5097102;28;20439;-81
2023/08/29 02:18:35;;;;;;;5.87;5.23;;;;;;;25.90;51.30;94087.69;5097283;28;20930;-81
2023/08/29 02:21:02;;;;;;;5.50;5.00;;;;;;;25.97;50.52;94090.19;5096896;28;20507;-80
2023/08/29 02:23:28;;;;;;;9.87;5.43;;;;;;;26.00;50.67;94084.34;5097097;28;20454;-82
2023/08/29 02:26:02;;;;;;;6.17;4.80;;;;;;;26.02;50.65;94090.31;5096758;28;20440;-81
2023/08/29 02:28:29;;;;;;;5.50;4.97;;;;;;;26.05;51.00;94091.69;5096616;28;20478;-82
2023/08/29 02:31:03;;;;;;;5.20;4.70;;;;;;;26.06;51.01;94090.63;5096892;28;20443;-81
2023/08/29 02:33:31;;;;;;;5.30;4.90;;;;;;;26.05;50.92;94065.63;5096865;28;20454;-81
2023/08/29 02:35:59;;;;;;;6.50;5.70;;;;;;;26.15;50.30;94076.50;5096781;28;20486;-81
2023/08/29 02:38:26;;;;;;;5.17;4.77;;;;;;;26.16;50.37;94080.03;5097216;28;20874;-82
2023/08/29 02:40:53;;;;;;;6.27;5.67;;;;;;;26.20;50.60;94081.16;5096610;28;20851;-81
2023/08/29 02:43:20;;;;;;;4.83;4.43;;;;;;;26.20;50.49;94065.00;5096156;28;20451;-82
2023/08/29 02:45:47;;;;;;;6.80;5.13;;;;;;;26.28;50.26;94077.22;5096718;28;20439;-81
2023/08/29 02:48:13;;;;;;;9.73;4.90;;;;;;;26.22;50.23;94076.34;5096781;28;20447;-82
2023/08/29 02:50:42;;;;;;;6.00;5.03;;;;;;;26.10;50.91;94081.00;5044741;28;20451;-81
2023/08/29 02:53:10;;;;;;;6.93;5.53;;;;;;;26.02;50.47;94076.03;5096452;28;20494;-81
2023/08/29 02:55:37;;;;;;;5.77;5.27;;;;;;;25.92;51.11;94074.81;5096535;28;20502;-81
2023/08/29 02:58:04;;;;;;;6.50;5.13;;;;;;;25.88;51.22;94079.06;5043891;28;20800;-81
2023/08/29 03:00:31;;;;;;;5.10;4.60;;;;;;;25.90;51.60;94076.13;5096670;28;20450;-82
2023/08/29 03:02:58;;;;;;;5.70;4.77;;;;;;;25.89;51.58;94066.41;5096714;28;20443;-83
2023/08/29 03:05:24;;;;;;;6.13;5.40;;;;;;;25.99;51.41;94068.44;5096130;28;20443;-83
2023/08/29 03:07:51;;;;;;;6.73;5.27;;;;;;;26.03;51.26;94070.44;5099184;28;20456;-83
2023/08/29 03:10:19;;;;;;;8.03;5.00;;;;;;;26.03;50.93;94070.44;5094656;28;20440;-81
2023/08/29 03:12:46;;;;;;;7.33;5.47;;;;;;;26.00;51.27;94068.19;5076888;28;20454;-82
2023/08/29 03:15:13;;;;;;;5.80;5.07;;;;;;;25.90;50.93;94068.88;5075749;28;20492;-82
2023/08/29 03:17:43;;;;;;;6.50;4.90;;;;;;;25.84;51.62;94071.72;5075731;28;20441;-78
2023/08/29 03:20:11;;;;;;;5.77;5.07;;;;;;;25.96;51.34;94075.13;5075464;28;20495;-81
2023/08/29 03:22:38;;;;;;;7.33;5.00;;;;;;;26.04;51.25;94068.56;5075881;28;20451;-82
2023/08/29 03:25:06;;;;;;;5.57;5.03;;;;;;;26.04;51.58;94065.88;5075441;28;20437;-83
2023/08/29 03:27:34;;;;;;;5.40;5.00;;;;;;;25.91;51.74;94067.00;5077000;28;20472;-81
2023/08/29 03:30:01;;;;;;;6.60;4.73;;;;;;;25.91;51.74;94065.13;5075517;28;20444;-81
2023/08/29 03:32:28;;;;;;;4.80;4.40;;;;;;;26.01;51.48;94066.31;5075625;28;20445;-82
2023/08/29 03:34:55;;;;;;;7.43;5.50;;;;;;;26.04;51.26;94061.28;5075550;28;20484;-82
2023/08/29 03:37:22;;;;;;;5.03;4.63;;;;;;;26.14;51.24;94066.00;5075726;28;20480;-81
2023/08/29 03:39:48;;;;;;;11.20;5.43;;;;;;;26.13;50.82;94069.75;5075405;28;20441;-81
2023/08/29 03:42:15;;;;;;;5.30;4.80;;;;;;;26.01;51.07;94071.69;5075902;28;20436;-82
2023/08/29 03:44:47;;;;;;;5.30;4.80;;;;;;;26.09;51.68;94072.13;5075147;28;20440;-82
2023/08/29 03:47:14;;;;;;;5.43;4.90;;;;;;;26.14;51.11;94076.75;5075190;28;20524;-81
2023/08/29 03:49:41;;;;;;;5.80;5.30;;;;;;;26.08;51.52;94067.00;5023689;28;20461;-80
2023/08/29 03:52:08;;;;;;;5.47;5.00;;;;;;;26.20;51.00;94065.81;5074933;28;20476;-81
2023/08/29 03:54:35;;;;;;;6.33;5.60;;;;;;;26.12;50.26;94058.19;5023024;28;20481;-81
2023/08/29 03:57:03;;;;;;;5.60;5.00;;;;;;;25.97;51.43;94063.31;5075334;28;20463;-81
2023/08/29 03:59:31;;;;;;;9.83;5.70;;;;;;;26.02;51.66;94062.56;5023453;28;20472;-81
2023/08/29 04:01:59;;;;;;;8.07;5.30;;;;;;;25.89;51.25;94055.66;5075205;28;20437;-81
2023/08/29 04:04:30;;;;;;;5.57;5.07;;;;;;;25.91;51.55;94057.06;5075188;28;20437;-81
2023/08/29 04:06:57;;;;;;;11.17;6.07;;;;;;;25.87;51.27;94055.91;5074621;28;20531;-81
2023/08/29 04:09:24;;;;;;;5.90;5.30;;;;;;;25.75;51.30;94051.69;5075085;28;20449;-81
2023/08/29 04:11:50;;;;;;;5.97;5.37;;;;;;;25.56;52.33;94048.38;5075162;28;20440;-81
2023/08/29 04:14:17;;;;;;;6.63;4.60;;;;;;;25.45;52.51;94046.59;5074678;28;20440;-82
2023/08/29 04:16:44;;;;;;;10.40;5.37;;;;;;;25.20;53.17;94042.38;5074695;28;20865;-81
2023/08/29 04:19:14;;;;;;;10.30;5.80;;;;;;;25.04;53.44;94048.50;5074637;28;20506;-81
2023/08/29 04:21:41;;;;;;;9.13;5.23;;;;;;;25.23;53.66;94049.97;5074705;28;20445;-82
2023/08/29 04:24:08;;;;;;;8.40;5.23;;;;;;;25.60;52.68;94050.34;5074596;28;20449;-82
2023/08/29 04:26:35;;;;;;;5.37;4.97;;;;;;;26.01;51.44;94050.19;5075981;28;20464;-82
2023/08/29 04:29:02;;;;;;;6.03;5.53;;;;;;;26.44;50.31;94047.63;5078231;28;20477;-81
2023/08/29 04:31:31;;;;;;;10.40;5.10;;;;;;;26.76;49.10;94049.66;5090273;28;20436;-82
2023/08/29 04:33:59;;;;;;;5.40;4.90;;;;;;;27.13;48.32;94047.16;5096391;28;20445;-82
2023/08/29 04:36:27;;;;;;;7.80;4.93;;;;;;;27.48;46.96;94045.91;5095232;28;21031;-81
2023/08/29 04:38:59;;;;;;;14.33;4.73;;;;;;;27.75;46.51;94052.91;5096108;28;20462;-83
2023/08/29 04:41:26;;;;;;;7.10;5.23;;;;;;;28.10;45.56;94048.91;5094815;28;20914;-81
2023/08/29 04:43:52;;;;;;;5.60;5.10;;;;;;;28.27;45.15;94041.47;5094747;28;20442;-85
2023/08/29 04:46:19;;;;;;;7.40;5.40;;;;;;;28.44;45.39;94043.19;5094769;28;20455;-80
2023/08/29 04:48:46;;;;;;;5.20;4.60;;;;;;;28.70;44.10;94034.16;5094957;28;20440;-80
2023/08/29 04:51:13;;;;;;;6.57;4.77;;;;;;;28.89;43.91;94035.34;5094326;28;20447;-80
2023/08/29 04:53:41;;;;;;;5.00;4.60;;;;;;;29.01;43.84;94043.22;5042094;28;20425;-79
2023/08/29 04:56:08;;;;;;;6.70;4.90;;;;;;;29.13;43.35;94046.50;5094840;28;20487;-83
2023/08/29 04:58:35;;;;;;;8.80;5.00;;;;;;;29.38;43.11;94056.56;5094794;28;20451;-81
2023/08/29 05:01:02;;;;;;;6.00;5.47;;;;;;;29.70;42.21;94055.56;5094323;28;20957;-81
2023/08/29 05:03:29;;;;;;;4.87;4.40;;;;;;;29.82;41.38;94048.03;5094155;28;20447;-84
2023/08/29 05:05:57;;;;;;;5.07;4.67;;;;;;;29.57;42.60;94044.22;5094099;28;20488;-79
2023/08/29 05:08:24;;;;;;;8.03;5.13;;;;;;;29.59;42.43;94030.41;5094092;28;20496;-79
2023/08/29 05:10:52;;;;;;;4.83;3.73;;;;;;;29.86;41.09;94036.38;5094384;28;20442;-79
2023/08/29 05:13:19;;;;;;;6.23;4.63;;;;;;;30.01;41.81;94037.47;5042058;28;20455;-80
2023/08/29 05:15:46;;;;;;;6.53;5.30;;;;;;;30.26;40.80;94028.53;5094070;28;20475;-80
2023/08/29 05:18:13;;;;;;;6.43;5.40;;;;;;;30.47;40.99;94024.72;5094116;28;20447;-80
2023/08/29 05:20:39;;;;;;;7.33;5.20;;;;;;;30.39;40.23;94028.00;5094337;28;20448;-79
2023/08/29 05:23:06;;;;;;;5.20;4.70;;;;;;;30.53;41.93;94042.56;5093673;28;20439;-81
2023/08/29 05:25:33;;;;;;;6.90;5.10;;;;;;;30.77;42.23;94037.38;5056745;28;20467;-78
2023/08/29 05:28:02;;;;;;;8.47;5.30;;;;;;;31.05;40.47;94030.50;5073886;28;20436;-80
2023/08/29 05:30:30;;;;;;;9.20;4.93;;;;;;;31.06;39.40;94022.09;5058561;28;20444;-78
2023/08/29 05:32:57;;;;;;;11.40;4.83;;;;;;;30.99;39.33;94021.59;5093800;28;20436;-79
2023/08/29 05:35:24;;;;;;;7.03;4.93;;;;;;;31.05;39.96;94019.66;5093706;28;20503;-80
2023/08/29 05:37:51;;;;;;;8.73;4.30;;;;;;;30.94;38.15;94024.31;5040663;28;20451;-81
2023/08/29 05:40:17;;;;;;;6.40;4.63;;;;;;;30.79;37.92;94019.75;5092919;28;20435;-78
2023/08/29 05:42:44;;;;;;;5.03;4.53;;;;;;;30.53;38.56;94016.28;5092591;28;20435;-79
2023/08/29 05:45:13;;;;;;;8.63;4.57;;;;;;;30.31;38.93;94028.53;5093563;28;20447;-79
2023/08/29 05:47:39;;;;;;;7.10;4.63;;;;;;;29.87;40.67;94016.38;5093305;28;20467;-79
2023/08/29 05:50:08;;;;;;;7.70;4.90;;;;;;;29.78;44.25;94028.81;5024499;28;20456;-78
2023/08/29 05:52:35;;;;;;;9.30;5.23;;;;;;;29.72;43.25;94019.06;5077514;28;20465;-78
2023/08/29 05:55:01;;;;;;;6.23;4.90;;;;;;;29.44;40.96;94009.56;5072858;28;20474;-78
2023/08/29 05:57:29;;;;;;;5.70;5.20;;;;;;;29.56;44.95;94023.66;5072696;28;20445;-80
2023/08/29 05:59:56;;;;;;;8.53;4.70;;;;;;;29.38;41.19;94013.31;5072438;28;20441;-79
2023/08/29 06:02:24;;;;;;;6.97;4.67;;;;;;;29.25;42.52;94019.25;5072685;28;20444;-79
2023/08/29 06:04:51;;;;;;;8.03;4.40;;;;;;;28.97;42.37;94017.81;5072999;28;20456;-78
2023/08/29 06:07:19;;;;;;;7.13;4.80;;;;;;;28.61;42.94;94012.22;5073028;28;20462;-79
2023/08/29 06:09:46;;;;;;;7.17;5.50;;;;;;;28.51;43.52;94020.28;5071777;28;20437;-79
2023/08/29 06:12:12;;;;;;;7.37;5.40;;;;;;;28.69;44.28;94022.53;5071737;28;20826;-78
2023/08/29 06:14:39;;;;;;;6.80;5.10;;;;;;;29.14;46.62;94039.22;5020636;28;20468;-78
2023/08/29 06:17:06;;;;;;;6.97;5.10;;;;;;;29.38;43.04;94026.84;5071770;28;20484;-78
2023/08/29 06:19:34;;;;;;;6.37;5.27;;;;;;;29.59;43.28;94027.72;5072150;28;20440;-79
2023/08/29 06:22:01;;;;;;;6.10;5.50;;;;;;;29.55;41.57;94019.34;5020861;28;20443;-77
2023/08/29 06:24:28;;;;;;;14.17;5.70;;;;;;;29.71;42.36;94022.03;5072592;28;20940;-77
2023/08/29 06:26:55;;;;;;;7.50;5.27;;;;;;;29.83;41.69;94019.91;5072118;28;20441;-77
2023/08/29 06:29:22;;;;;;;5.73;5.13;;;;;;;29.74;41.09;94030.41;5072308;28;20479;-78
2023/08/29 06:31:49;;;;;;;7.60;5.10;;;;;;;29.63;40.59;94019.88;5073750;28;20871;-78
2023/08/29 06:34:16;;;;;;;9.50;6.17;;;;;;;29.46;41.44;94026.34;5093116;28;20436;-78
2023/08/29 06:36:44;;;;;;;11.87;5.73;;;;;;;29.27;42.45;94027.91;5092693;28;20489;-78
2023/08/29 06:39:11;;;;;;;7.60;4.73;;;;;;;29.16;43.27;94031.66;5092668;28;20447;-78
2023/08/29 06:41:37;;;;;;;8.07;5.67;;;;;;;29.11;43.60;94034.34;5092775;28;20440;-78
2023/08/29 06:44:05;;;;;;;10.43;5.30;;;;;;;29.06;43.59;94028.91;5092617;28;20447;-78
2023/08/29 06:46:32;;;;;;;5.93;5.43;;;;;;;28.88;42.86;94024.78;5040355;28;20447;-78
2023/08/29 06:48:59;;;;;;;6.20;5.40;;;;;;;28.85;42.45;94022.63;5092079;28;20782;-78
2023/08/29 06:51:26;;;;;;;7.70;5.13;;;;;;;28.82;43.37;94021.25;5091745;28;20472;-78
2023/08/29 06:53:54;;;;;;;6.37;5.10;;;;;;;28.91;42.41;94025.09;5092314;28;20432;-78
2023/08/29 06:56:21;;;;;;;6.37;5.73;;;;;;;28.71;43.72;94011.47;5092201;28;20491;-78
2023/08/29 06:58:47;;;;;;;7.50;5.10;;;;;;;28.56;43.54;94017.59;5091883;28;20440;-78
2023/08/29 07:01:44;;;;;;;;;;;;;;;;;;;;;
2023/08/29 07:04:11;;;;;;;11.77;4.93;;;;;;;28.91;43.88;94008.06;5037483;28;20446;-79
2023/08/29 07:06:39;;;;;;;6.90;5.90;;;;;;;29.23;43.95;94010.59;5095941;28;20778;-78
2023/08/29 07:09:08;;;;;;;8.33;5.90;;;;;;;29.58;42.54;94013.38;5095766;28;20876;-79
2023/08/29 07:11:35;;;;;;;7.53;5.53;;;;;;;29.73;41.44;94020.69;5095617;28;20447;-79
2023/08/29 07:14:02;;;;;;;5.97;5.37;;;;;;;29.92;41.43;94016.38;5095272;28;20447;-78
2023/08/29 07:16:30;;;;;;;7.60;5.10;;;;;;;29.97;40.63;94014.72;5043395;28;20480;-78
2023/08/29 07:18:58;;;;;;;7.33;5.00;;;;;;;30.07;40.70;94018.28;5094504;28;20811;-78
2023/08/29 07:21:25;;;;;;;6.10;5.50;;;;;;;29.98;40.81;94019.06;5094430;28;20439;-78
2023/08/29 07:23:54;;;;;;;11.30;5.93;;;;;;;30.13;40.24;94016.38;5094923;28;20446;-79
2023/08/29 07:26:22;;;;;;;7.63;5.50;;;;;;;30.41;40.54;94020.41;5095288;28;20796;-78
2023/08/29 07:28:49;;;;;;;5.40;4.87;;;;;;;30.45;40.09;94016.06;5042705;28;21006;-79
2023/08/29 07:31:17;;;;;;;8.30;5.47;;;;;;;30.46;40.02;94014.97;5094690;28;20440;-78
2023/08/29 07:33:44;;;;;;;7.83;5.00;;;;;;;30.62;39.76;94013.03;5094866;28;20519;-78
2023/08/29 07:36:11;;;;;;;8.10;5.13;;;;;;;30.74;38.99;94013.56;5094704;28;20487;-78
2023/08/29 07:38:38;;;;;;;17.73;5.70;;;;;;;31.05;38.66;94009.63;5094641;28;20446;-78
2023/08/29 07:41:05;;;;;;;16.97;6.20;;;;;;;31.07;37.92;94004.72;5094574;28;20448;-78
2023/08/29 07:43:33;;;;;;;8.13;6.60;;;;;;;31.25;38.74;94014.16;5094644;28;20825;-77
2023/08/29 07:46:00;;;;;;;6.90;5.67;;;;;;;31.30;37.86;94008.72;5094694;28;20456;-79
2023/08/29 07:48:27;;;;;;;6.53;5.30;;;;;;;31.21;38.19;94015.78;5094594;28;20443;-79
2023/08/29 07:50:53;;;;;;;6.90;5.90;;;;;;;31.31;38.33;94013.03;5042334;28;20957;-78
2023/08/29 07:53:20;;;;;;;7.07;5.50;;;;;;;31.48;38.23;94001.81;5095111;28;20814;-78
2023/08/29 07:55:47;;;;;;;8.20;5.77;;;;;;;31.54;38.03;94008.03;5094474;28;20488;-78
2023/08/29 07:58:14;;;;;;;12.70;5.93;;;;;;;31.62;37.43;94000.09;5094436;28;20455;-78
2023/08/29 08:00:42;;;;;;;6.93;6.23;;;;;;;31.79;36.96;94007.84;5094124;28;20436;-78
2023/08/29 08:03:09;;;;;;;6.47;5.87;;;;;;;32.10;38.21;94013.84;5094347;28;20444;-78
2023/08/29 08:05:36;;;;;;;6.13;5.53;;;;;;;32.45;36.74;94004.56;5094096;28;20451;-78
2023/08/29 08:08:04;;;;;;;5.83;5.17;;;;;;;32.66;35.93;94002.41;5094269;28;20442;-79
2023/08/29 08:10:31;;;;;;;5.10;4.67;;;;;;;32.93;35.32;94002.66;5094057;28;20444;-78
2023/08/29 08:12:58;;;;;;;8.10;6.40;;;;;;;32.93;35.60;94007.31;5094199;28;20448;-78
2023/08/29 08:15:25;;;;;;;10.00;6.97;;;;;;;33.08;34.64;94003.59;5093761;28;20439;-79
2023/08/29 08:17:53;;;;;;;6.43;5.43;;;;;;;33.28;35.54;93999.81;5093745;28;20506;-78
2023/08/29 08:20:20;;;;;;;6.50;5.90;;;;;;;33.28;35.25;94000.63;5094362;28;20448;-78
2023/08/29 08:22:47;;;;;;;9.40;6.03;;;;;;;33.45;34.85;93994.66;5093763;28;20440;-78
2023/08/29 08:25:13;;;;;;;6.40;5.90;;;;;;;33.33;34.50;93986.16;5095293;28;20448;-78
2023/08/29 08:27:41;;;;;;;6.00;5.40;;;;;;;33.04;34.90;93984.34;5094657;28;20455;-79
2023/08/29 08:30:08;;;;;;;10.90;7.03;;;;;;;32.76;34.97;93990.66;5058896;28;20471;-79
2023/08/29 08:32:35;;;;;;;13.13;6.77;;;;;;;32.36;35.33;93973.69;5095046;28;20475;-78
2023/08/29 08:35:05;;;;;;;8.60;6.10;;;;;;;31.96;35.72;93970.25;5058585;28;20436;-78
2023/08/29 08:37:33;;;;;;;6.63;5.63;;;;;;;31.63;36.99;93976.47;5093582;28;20495;-78
2023/08/29 08:40:00;;;;;;;10.83;6.23;;;;;;;31.40;38.18;93962.53;5093633;28;20479;-79
2023/08/29 08:42:28;;;;;;;7.13;6.53;;;;;;;31.09;38.38;93961.09;5093344;28;20934;-78
2023/08/29 08:44:56;;;;;;;20.10;7.97;;;;;;;31.35;38.51;93964.47;5093248;28;20444;-78
2023/08/29 08:47:23;;;;;;;10.30;6.47;;;;;;;31.50;39.09;93967.06;5093920;28;20466;-78
2023/08/29 08:49:50;;;;;;;7.23;6.40;;;;;;;31.64;37.32;93967.25;5093489;28;20447;-78
2023/08/29 08:52:18;;;;;;;14.57;5.50;;;;;;;31.91;36.57;93958.66;5104021;28;20483;-79
2023/08/29 08:54:45;;;;;;;7.30;6.20;;;;;;;32.14;36.48;93954.38;5077872;28;20435;-78
2023/08/29 08:57:13;;;;;;;12.80;6.10;;;;;;;32.31;36.49;93960.16;5113599;28;20478;-79
2023/08/29 08:59:41;;;;;;;6.37;5.50;;;;;;;32.56;35.81;93957.16;5113892;28;20439;-78
2023/08/29 09:02:11;;;;;;;11.27;5.90;;;;;;;32.66;35.47;93957.03;5113910;28;20439;-78
2023/08/29 09:04:38;;;;;;;7.57;5.93;;;;;;;32.60;37.43;93954.69;5061281;28;20442;-78
2023/08/29 09:07:05;;;;;;;6.33;5.80;;;;;;;32.48;36.95;93955.09;5113756;28;20443;-78
2023/08/29 09:09:33;;;;;;;6.43;5.83;;;;;;;32.51;36.69;93954.53;5113494;28;20439;-78
2023/08/29 09:12:00;;;;;;;8.20;6.17;;;;;;;32.73;36.31;93961.34;5113070;28;20454;-78
2023/08/29 09:14:27;;;;;;;7.33;6.50;;;;;;;32.83;35.95;93961.22;5113618;28;20739;-78
2023/08/29 09:16:55;;;;;;;10.47;6.53;;;;;;;32.97;36.38;93942.31;5113648;28;20494;-78
2023/08/29 09:19:22;;;;;;;7.90;6.23;;;;;;;32.98;36.15;93950.19;5113320;28;20447;-78
2023/08/29 09:21:50;;;;;;;7.83;5.43;;;;;;;32.96;35.62;93949.63;5113410;28;20478;-79
2023/08/29 09:24:23;;;;;;;7.20;6.50;;;;;;;32.93;37.36;93942.06;5113373;28;20454;-78
2023/08/29 09:26:51;;;;;;;9.73;7.40;;;;;;;32.99;37.20;93948.25;5113369;28;20482;-79
2023/08/29 09:29:20;;;;;;;6.20;5.60;;;;;;;32.91;36.26;93941.53;5061236;28;20439;-79
2023/08/29 09:31:47;;;;;;;9.03;7.27;;;;;;;32.80;36.34;93940.06;5113412;28;20938;-79
2023/08/29 09:34:27;;;;;;;10.43;6.40;;;;;;;32.50;36.13;93935.78;5113549;28;20442;-79
2023/08/29 09:36:54;;;;;;;7.73;6.20;;;;;;;32.19;38.58;93941.53;5113249;28;20485;-79
2023/08/29 09:39:22;;;;;;;6.47;5.87;;;;;;;31.77;37.26;93938.69;5113293;28;20471;-79
2023/08/29 09:42:04;;;;;;;6.57;5.97;;;;;;;31.60;39.55;93941.78;5113103;28;20478;-84
2023/08/29 09:44:36;;;;;;;8.27;6.20;;;;;;;31.53;39.00;93939.41;5077254;28;20435;-83
2023/08/29 09:47:03;;;;;;;7.00;6.30;;;;;;;31.47;39.14;93947.84;5113266;28;20447;-84
2023/08/29 09:49:42;;;;;;;8.93;6.83;;;;;;;31.46;40.96;93951.66;5113175;28;20441;-83
2023/08/29 09:52:10;;;;;;;7.80;5.97;;;;;;;31.44;39.06;93943.81;5112510;28;20481;-83
2023/08/29 09:54:43;;;;;;;6.40;5.90;;;;;;;31.40;39.46;93940.84;5113609;28;20200;-84
2023/08/29 09:57:14;;;;;;;7.13;6.20;;;;;;;31.26;40.24;93945.31;5113293;28;20490;-83
2023/08/29 09:59:44;;;;;;;6.70;6.20;;;;;;;31.07;40.35;93947.00;5113526;28;20431;-83
2023/08/29 10:02:13;;;;;;;9.30;6.17;;;;;;;31.05;40.85;93943.78;5113160;28;20497;-84
2023/08/29 10:04:43;;;;;;;7.30;6.40;;;;;;;30.97;41.42;93941.66;5112048;28;20439;-85
2023/08/29 10:07:15;;;;;;;6.47;5.87;;;;;;;30.89;41.57;93934.91;5099178;28;20456;-85
2023/08/29 10:09:42;;;;;;;7.13;6.53;;;;;;;30.80;41.85;93939.28;5092731;28;21013;-84
2023/08/29 10:12:13;;;;;;;6.57;5.97;;;;;;;30.71;41.86;93932.84;5092888;28;20436;-84
2023/08/29 10:14:42;;;;;;;9.43;8.40;;;;;;;30.73;43.08;93936.91;5092190;28;20941;-80
2023/08/29 10:17:10;;;;;;;6.53;6.03;;;;;;;30.73;42.54;93931.47;5091947;28;20479;-80
2023/08/29 10:19:38;;;;;;;12.27;6.20;;;;;;;30.75;43.78;93932.00;5092403;28;20440;-79
2023/08/29 10:22:07;;;;;;;5.93;5.43;;;;;;;30.77;42.15;93929.03;5093239;28;20452;-79
2023/08/29 10:24:36;;;;;;;8.67;6.90;;;;;;;30.81;42.43;93924.66;5092112;28;20464;-80
2023/08/29 10:27:04;;;;;;;7.53;5.70;;;;;;;30.91;41.78;93926.50;5092554;28;20443;-80
2023/08/29 10:29:32;;;;;;;6.90;6.23;;;;;;;30.98;41.69;93932.44;5092425;28;20554;-80
2023/08/29 10:32:02;;;;;;;6.70;6.00;;;;;;;31.02;41.67;93928.88;5092669;28;20505;-80
2023/08/29 10:34:30;;;;;;;8.17;7.40;;;;;;;31.07;41.19;93928.03;5093427;28;20440;-79
2023/08/29 10:36:57;;;;;;;13.83;8.40;;;;;;;31.04;41.53;93926.69;5096335;28;20480;-80
2023/08/29 10:39:27;;;;;;;8.43;7.63;;;;;;;30.88;42.20;93927.06;5095639;28;20926;-79
2023/08/29 10:41:55;;;;;;;11.90;6.27;;;;;;;30.50;42.11;93916.66;5096783;28;20452;-80
2023/08/29 10:44:40;;;;;;;7.47;6.70;;;;;;;30.49;42.98;93914.22;5096250;28;20432;-80
2023/08/29 10:47:19;;;;;;;7.73;5.80;;;;;;;30.05;43.72;93914.09;5096507;28;20496;-80
2023/08/29 10:49:47;;;;;;;7.33;6.73;;;;;;;30.08;42.74;93922.50;5095974;28;20476;-79
2023/08/29 10:52:18;;;;;;;7.87;5.87;;;;;;;29.95;42.53;93931.13;5095750;28;20470;-79
2023/08/29 10:54:45;;;;;;;9.17;7.27;;;;;;;29.93;43.38;93927.91;5096110;28;20432;-80
2023/08/29 10:57:28;;;;;;;8.37;7.57;;;;;;;29.70;43.42;93933.88;5095610;28;20507;-79
2023/08/29 10:59:57;;;;;;;13.10;8.30;;;;;;;29.67;42.79;93929.81;5095896;28;20439;-82
2023/08/29 11:02:29;;;;;;;8.50;7.70;;;;;;;29.58;43.69;93926.06;5095623;28;20443;-80
2023/08/29 11:05:13;;;;;;;7.87;5.97;;;;;;;29.46;43.33;93926.31;5096037;28;20523;-80
2023/08/29 11:07:41;;;;;;;17.30;6.97;;;;;;;29.39;44.25;93923.03;5095697;28;20436;-80
2023/08/29 11:10:21;;;;;;;12.77;10.20;;;;;;;29.42;44.48;93906.28;5095836;28;20440;-80
2023/08/29 11:13:09;;;;;;;10.23;6.53;;;;;;;29.33;43.41;93902.50;5095683;28;20439;-80
2023/08/29 11:16:08;;;;;;;14.17;8.83;;;;;;;29.23;43.85;93907.91;5096251;28;20440;-80
2023/08/29 11:18:35;;;;;;;10.33;7.30;;;;;;;29.33;44.84;93913.31;5095587;28;20892;-79
2023/08/29 11:21:10;;;;;;;9.10;6.57;;;;;;;29.42;45.72;93905.47;5095537;28;20439;-80
2023/08/29 11:23:39;;;;;;;11.23;6.60;;;;;;;29.28;45.23;93899.81;5095284;28;20439;-80
2023/08/29 11:26:08;;;;;;;8.37;5.97;;;;;;;29.12;45.25;93887.34;5095435;28;20947;-80
2023/08/29 11:28:39;;;;;;;10.43;6.33;;;;;;;29.17;45.81;93893.56;5095357;28;20466;-80
2023/08/29 11:31:06;;;;;;;14.40;6.63;;;;;;;29.17;45.52;93882.75;5094918;28;20444;-80
2023/08/29 11:33:36;;;;;;;12.77;10.90;;;;;;;29.28;44.91;93883.59;5095544;28;20487;-80
2023/08/29 11:36:05;;;;;;;22.03;18.87;;;;;;;29.33;44.23;93883.59;5095292;28;20436;-80
2023/08/29 11:38:33;;;;;;;10.10;8.63;;;;;;;29.32;44.36;93887.38;5095129;28;20506;-79